createdAt,value
2016-08-13T00:00:36.278Z,17.19
2016-08-13T00:01:35.230Z,17.11
2016-08-13T00:02:36.453Z,17.12
2016-08-13T00:03:36.443Z,17.11
2016-08-13T00:04:37.194Z,17.2
2016-08-13T00:05:35.144Z,17.11
2016-08-13T00:06:35.147Z,17.11
2016-08-13T00:07:36.574Z,17.09
2016-08-13T00:08:35.193Z,16.96
2016-08-13T00:09:36.399Z,16.97
2016-08-13T00:10:35.619Z,16.97
2016-08-13T00:11:35.339Z,16.89
2016-08-13T00:12:35.119Z,16.97
2016-08-13T00:13:36.096Z,16.96
2016-08-13T00:14:35.622Z,16.87
2016-08-13T00:15:36.277Z,16.89
2016-08-13T00:16:36.142Z,16.78
2016-08-13T00:17:35.708Z,16.64
2016-08-13T00:18:36.153Z,16.72
2016-08-13T00:19:35.660Z,16.69
2016-08-13T00:20:35.246Z,16.68
2016-08-13T00:21:35.659Z,16.53
2016-08-13T00:22:36.662Z,16.57
2016-08-13T00:23:35.064Z,16.6
2016-08-13T00:24:36.011Z,16.5
2016-08-13T00:25:35.828Z,16.47
2016-08-13T00:26:35.535Z,16.46
2016-08-13T00:27:36.573Z,16.5
2016-08-13T00:28:35.970Z,16.5
2016-08-13T00:29:37.425Z,16.42
2016-08-13T00:30:37.116Z,16.5
2016-08-13T00:31:36.065Z,16.54
2016-08-13T00:32:36.482Z,16.43
2016-08-13T00:33:35.901Z,16.53
2016-08-13T00:34:36.042Z,16.66
2016-08-13T00:35:36.567Z,16.69
2016-08-13T00:36:35.566Z,16.65
2016-08-13T00:37:35.826Z,16.49
2016-08-13T00:38:36.858Z,16.56
2016-08-13T00:39:35.840Z,16.66
2016-08-13T00:40:35.861Z,16.68
2016-08-13T00:41:36.480Z,16.66
2016-08-13T00:42:37.275Z,16.64
2016-08-13T00:43:36.161Z,16.74
2016-08-13T00:44:37.096Z,16.76
2016-08-13T00:45:37.843Z,16.84
2016-08-13T00:46:36.961Z,16.76
2016-08-13T00:47:37.969Z,16.76
2016-08-13T00:48:36.805Z,16.75
2016-08-13T00:49:36.627Z,16.72
2016-08-13T00:50:36.486Z,16.65
2016-08-13T00:51:36.977Z,16.68
2016-08-13T00:52:36.408Z,16.66
2016-08-13T00:53:37.668Z,16.47
2016-08-13T00:54:36.883Z,16.47
2016-08-13T00:55:36.346Z,16.41
2016-08-13T00:56:37.489Z,16.51
2016-08-13T00:57:37.711Z,16.41
2016-08-13T00:58:36.294Z,16.53
2016-08-13T00:59:37.156Z,16.49
2016-08-13T01:00:37.328Z,16.41
2016-08-13T01:01:37.621Z,16.41
2016-08-13T01:02:36.243Z,16.35
2016-08-13T01:03:36.820Z,16.33
2016-08-13T01:04:37.589Z,16.32
2016-08-13T01:05:36.741Z,16.35
2016-08-13T01:06:36.636Z,16.35
2016-08-13T01:07:37.748Z,16.28
2016-08-13T01:08:37.324Z,16.32
2016-08-13T01:09:37.761Z,16.32
2016-08-13T01:10:37.685Z,16.32
2016-08-13T01:11:37.264Z,16.26
2016-08-13T01:12:37.831Z,16.12
2016-08-13T01:13:37.463Z,16.12
2016-08-13T01:14:37.584Z,16.15
2016-08-13T01:15:36.898Z,16.15
2016-08-13T01:16:37.562Z,16.05
2016-08-13T01:17:37.287Z,16.02
2016-08-13T01:18:37.302Z,16.02
2016-08-13T01:19:37.524Z,15.95
2016-08-13T01:20:37.689Z,15.82
2016-08-13T01:21:36.749Z,15.94
2016-08-13T01:22:37.703Z,15.95
2016-08-13T01:23:37.251Z,15.92
2016-08-13T01:24:37.591Z,16.04
2016-08-13T01:25:36.963Z,15.95
2016-08-13T01:26:37.235Z,16.16
2016-08-13T01:27:36.949Z,16.1
2016-08-13T01:28:37.400Z,16.02
2016-08-13T01:29:38.773Z,15.98
2016-08-13T01:30:38.133Z,16.02
2016-08-13T01:31:37.872Z,16
2016-08-13T01:32:37.398Z,15.98
2016-08-13T01:33:37.127Z,15.92
2016-08-13T01:34:38.791Z,15.94
2016-08-13T01:35:37.612Z,16.01
2016-08-13T01:36:38.092Z,16.15
2016-08-13T01:37:38.285Z,16.15
2016-08-13T01:38:38.213Z,16.02
2016-08-13T01:39:39.035Z,16.02
2016-08-13T01:40:37.886Z,15.77
2016-08-13T01:41:38.284Z,15.8
2016-08-13T01:42:37.730Z,15.76
2016-08-13T01:43:38.432Z,15.79
2016-08-13T01:44:38.453Z,15.65
2016-08-13T01:45:37.460Z,15.76
2016-08-13T01:46:38.180Z,15.73
2016-08-13T01:47:38.422Z,16.04
2016-08-13T01:48:37.988Z,15.98
2016-08-13T01:49:38.024Z,15.8
2016-08-13T01:50:37.914Z,15.75
2016-08-13T01:51:38.882Z,15.67
2016-08-13T01:52:39.240Z,15.58
2016-08-13T01:53:37.389Z,15.59
2016-08-13T01:54:37.929Z,15.58
2016-08-13T01:55:38.868Z,15.62
2016-08-13T01:56:38.436Z,15.62
2016-08-13T01:57:37.956Z,15.62
2016-08-13T01:58:39.110Z,15.7
2016-08-13T01:59:37.701Z,15.62
2016-08-13T02:00:38.323Z,15.79
2016-08-13T02:01:38.269Z,15.8
2016-08-13T02:02:39.074Z,15.82
2016-08-13T02:03:37.964Z,15.72
2016-08-13T02:04:38.853Z,15.76
2016-08-13T02:05:39.283Z,15.67
2016-08-13T02:06:38.827Z,15.67
2016-08-13T02:07:37.684Z,15.73
2016-08-13T02:08:39.988Z,15.82
2016-08-13T02:09:39.766Z,15.8
2016-08-13T02:10:38.219Z,15.8
2016-08-13T02:11:37.789Z,15.79
2016-08-13T02:12:39.806Z,15.72
2016-08-13T02:13:40.422Z,15.72
2016-08-13T02:14:38.498Z,15.73
2016-08-13T02:15:39.341Z,15.62
2016-08-13T02:16:38.947Z,15.68
2016-08-13T02:17:39.424Z,15.55
2016-08-13T02:18:38.423Z,15.61
2016-08-13T02:19:38.063Z,15.57
2016-08-13T02:20:39.027Z,15.51
2016-08-13T02:21:39.387Z,15.61
2016-08-13T02:22:39.650Z,15.54
2016-08-13T02:23:38.683Z,15.52
2016-08-13T02:24:39.043Z,15.55
2016-08-13T02:25:39.303Z,15.29
2016-08-13T02:26:38.272Z,15.37
2016-08-13T02:27:39.586Z,15.36
2016-08-13T02:28:39.565Z,15.4
2016-08-13T02:29:38.551Z,15.35
2016-08-13T02:30:39.599Z,15.43
2016-08-13T02:31:38.864Z,15.29
2016-08-13T02:32:40.024Z,15.28
2016-08-13T02:33:38.947Z,15.4
2016-08-13T02:34:38.923Z,15.24
2016-08-13T02:35:38.950Z,15.25
2016-08-13T02:36:39.359Z,15.28
2016-08-13T02:37:40.497Z,15.19
2016-08-13T02:38:38.926Z,15.25
2016-08-13T02:39:40.821Z,15.27
2016-08-13T02:40:39.921Z,15.24
2016-08-13T02:41:39.545Z,15.36
2016-08-13T02:42:38.927Z,15.42
2016-08-13T02:43:38.938Z,15.39
2016-08-13T02:44:40.203Z,15.37
2016-08-13T02:45:39.043Z,15.31
2016-08-13T02:46:39.382Z,15.24
2016-08-13T02:47:40.159Z,15.31
2016-08-13T02:48:39.181Z,15.36
2016-08-13T02:49:39.094Z,15.52
2016-08-13T02:50:39.798Z,15.44
2016-08-13T02:51:40.280Z,15.43
2016-08-13T02:52:39.599Z,15.42
2016-08-13T02:53:40.674Z,15.37
2016-08-13T02:54:39.857Z,15.25
2016-08-13T02:55:39.793Z,15.21
2016-08-13T02:56:39.528Z,15.19
2016-08-13T02:57:39.243Z,15.31
2016-08-13T02:58:39.906Z,15.31
2016-08-13T02:59:40.668Z,15.29
2016-08-13T03:00:40.278Z,15.25
2016-08-13T03:01:39.236Z,15.22
2016-08-13T03:02:40.632Z,15.4
2016-08-13T03:03:40.322Z,15.35
2016-08-13T03:04:39.304Z,15.24
2016-08-13T03:05:39.775Z,15.33
2016-08-13T03:06:40.387Z,15.27
2016-08-13T03:07:39.461Z,15.21
2016-08-13T03:08:40.494Z,15.22
2016-08-13T03:09:40.697Z,14.94
2016-08-13T03:10:39.926Z,14.96
2016-08-13T03:11:40.238Z,15.02
2016-08-13T03:12:42.227Z,14.88
2016-08-13T03:13:41.718Z,14.88
2016-08-13T03:14:41.034Z,14.84
2016-08-13T03:15:40.322Z,14.94
2016-08-13T03:16:39.731Z,15
2016-08-13T03:17:40.322Z,15.06
2016-08-13T03:18:40.459Z,15.06
2016-08-13T03:19:41.105Z,14.99
2016-08-13T03:20:39.318Z,14.91
2016-08-13T03:21:41.153Z,14.97
2016-08-13T03:22:40.738Z,15.07
2016-08-13T03:23:39.821Z,15.02
2016-08-13T03:24:39.454Z,15.06
2016-08-13T03:25:40.629Z,14.97
2016-08-13T03:26:40.487Z,14.88
2016-08-13T03:27:40.959Z,14.82
2016-08-13T03:28:41.249Z,14.82
2016-08-13T03:29:39.804Z,14.97
2016-08-13T03:30:40.902Z,14.92
2016-08-13T03:31:39.841Z,14.94
2016-08-13T03:32:40.636Z,14.88
2016-08-13T03:33:40.181Z,14.81
2016-08-13T03:34:40.695Z,14.77
2016-08-13T03:35:41.985Z,14.68
2016-08-13T03:36:40.039Z,14.73
2016-08-13T03:37:42.145Z,14.7
2016-08-13T03:38:40.530Z,14.81
2016-08-13T03:39:41.467Z,14.7
2016-08-13T03:40:42.054Z,14.85
2016-08-13T03:41:41.502Z,14.84
2016-08-13T03:42:40.428Z,14.92
2016-08-13T03:43:40.099Z,14.91
2016-08-13T03:44:40.081Z,14.72
2016-08-13T03:45:41.236Z,14.96
2016-08-13T03:46:40.363Z,15.07
2016-08-13T03:47:40.389Z,15.11
2016-08-13T03:48:41.068Z,15.07
2016-08-13T03:49:41.017Z,15.02
2016-08-13T03:50:41.996Z,14.85
2016-08-13T03:51:40.781Z,14.88
2016-08-13T03:52:41.087Z,15
2016-08-13T03:53:40.036Z,14.85
2016-08-13T03:54:41.179Z,14.84
2016-08-13T03:55:41.510Z,14.82
2016-08-13T03:56:40.554Z,14.82
2016-08-13T03:57:40.961Z,14.99
2016-08-13T03:58:40.680Z,14.91
2016-08-13T03:59:42.087Z,14.96
2016-08-13T04:00:41.950Z,14.82
2016-08-13T04:01:42.127Z,14.77
2016-08-13T04:02:42.254Z,14.92
2016-08-13T04:03:40.573Z,14.88
2016-08-13T04:04:42.119Z,14.82
2016-08-13T04:05:41.950Z,14.97
2016-08-13T04:06:42.624Z,14.88
2016-08-13T04:07:42.026Z,14.84
2016-08-13T04:08:42.465Z,14.97
2016-08-13T04:09:40.244Z,15.02
2016-08-13T04:10:41.989Z,14.96
2016-08-13T04:11:42.135Z,14.88
2016-08-13T04:12:42.170Z,14.97
2016-08-13T04:13:41.582Z,15.03
2016-08-13T04:14:41.976Z,14.88
2016-08-13T04:15:41.715Z,14.94
2016-08-13T04:16:42.184Z,14.86
2016-08-13T04:17:41.232Z,14.86
2016-08-13T04:18:41.061Z,14.88
2016-08-13T04:19:41.772Z,14.97
2016-08-13T04:20:41.833Z,15
2016-08-13T04:21:41.091Z,14.97
2016-08-13T04:22:41.567Z,14.84
2016-08-13T04:23:41.900Z,14.85
2016-08-13T04:24:41.466Z,14.91
2016-08-13T04:25:42.377Z,14.81
2016-08-13T04:26:42.033Z,14.88
2016-08-13T04:27:41.477Z,14.81
2016-08-13T04:28:42.497Z,14.91
2016-08-13T04:29:42.062Z,14.85
2016-08-13T04:30:42.325Z,14.92
2016-08-13T04:31:41.774Z,14.86
2016-08-13T04:32:41.877Z,14.84
2016-08-13T04:33:42.202Z,14.85
2016-08-13T04:34:41.862Z,14.81
2016-08-13T04:35:41.500Z,14.85
2016-08-13T04:36:43.291Z,14.88
2016-08-13T04:37:42.173Z,14.88
2016-08-13T04:38:41.738Z,14.89
2016-08-13T04:39:43.314Z,15
2016-08-13T04:40:43.285Z,15.02
2016-08-13T04:41:41.638Z,15.18
2016-08-13T04:42:42.418Z,15.19
2016-08-13T04:43:43.084Z,15.21
2016-08-13T04:44:42.323Z,15.14
2016-08-13T04:45:41.780Z,15.29
2016-08-13T04:46:42.352Z,15.25
2016-08-13T04:47:42.487Z,15.25
2016-08-13T04:48:41.663Z,15.18
2016-08-13T04:49:41.566Z,15.21
2016-08-13T04:50:42.850Z,15.18
2016-08-13T04:51:42.047Z,15.22
2016-08-13T04:52:41.540Z,15.35
2016-08-13T04:53:42.441Z,15.24
2016-08-13T04:54:44.527Z,15.27
2016-08-13T04:55:42.748Z,15.28
2016-08-13T04:56:42.853Z,15.37
2016-08-13T04:57:42.592Z,15.42
2016-08-13T04:58:43.018Z,15.43
2016-08-13T04:59:41.794Z,15.46
2016-08-13T05:00:42.479Z,15.39
2016-08-13T05:01:42.107Z,15.4
2016-08-13T05:02:43.120Z,15.46
2016-08-13T05:03:44.196Z,15.42
2016-08-13T05:04:43.033Z,15.44
2016-08-13T05:05:42.686Z,15.46
2016-08-13T05:06:41.850Z,15.44
2016-08-13T05:07:41.996Z,15.43
2016-08-13T05:08:43.150Z,15.43
2016-08-13T05:09:43.204Z,15.43
2016-08-13T05:10:42.662Z,15.43
2016-08-13T05:11:42.223Z,15.39
2016-08-13T05:12:43.191Z,15.39
2016-08-13T05:13:42.081Z,15.39
2016-08-13T05:14:41.939Z,15.43
2016-08-13T05:15:43.492Z,15.35
2016-08-13T05:16:42.987Z,15.37
2016-08-13T05:17:43.105Z,15.39
2016-08-13T05:18:43.548Z,15.49
2016-08-13T05:19:42.940Z,15.43
2016-08-13T05:20:43.350Z,15.43
2016-08-13T05:21:42.904Z,15.4
2016-08-13T05:22:42.548Z,15.4
2016-08-13T05:23:42.509Z,15.4
2016-08-13T05:24:42.790Z,15.42
2016-08-13T05:25:43.291Z,15.46
2016-08-13T05:26:42.793Z,15.42
2016-08-13T05:27:45.675Z,15.36
2016-08-13T05:28:42.873Z,15.4
2016-08-13T05:29:43.405Z,15.4
2016-08-13T05:30:43.312Z,15.43
2016-08-13T05:31:43.182Z,15.42
2016-08-13T05:32:42.437Z,15.46
2016-08-13T05:33:42.437Z,15.47
2016-08-13T05:34:43.528Z,15.49
2016-08-13T05:35:42.742Z,15.49
2016-08-13T05:36:42.740Z,15.51
2016-08-13T05:37:43.909Z,15.51
2016-08-13T05:38:43.583Z,15.44
2016-08-13T05:39:43.135Z,15.52
2016-08-13T05:40:44.843Z,15.49
2016-08-13T05:41:44.146Z,15.59
2016-08-13T05:42:44.208Z,15.59
2016-08-13T05:43:44.126Z,15.64
2016-08-13T05:44:43.908Z,15.65
2016-08-13T05:45:44.058Z,15.76
2016-08-13T05:46:43.275Z,15.75
2016-08-13T05:47:42.633Z,15.77
2016-08-13T05:48:44.065Z,15.88
2016-08-13T05:49:43.905Z,15.88
2016-08-13T05:50:43.991Z,15.84
2016-08-13T05:51:42.964Z,15.92
2016-08-13T05:52:43.003Z,15.94
2016-08-13T05:53:45.021Z,15.95
2016-08-13T05:54:43.485Z,15.94
2016-08-13T05:55:44.189Z,15.92
2016-08-13T05:56:44.448Z,15.91
2016-08-13T05:57:43.989Z,16.02
2016-08-13T05:58:43.177Z,16.01
2016-08-13T05:59:43.936Z,16.04
2016-08-13T06:00:45.059Z,16
2016-08-13T06:01:43.442Z,16.13
2016-08-13T06:02:43.137Z,16.05
2016-08-13T06:03:44.904Z,16.23
2016-08-13T06:04:43.908Z,16.28
2016-08-13T06:05:44.253Z,16.33
2016-08-13T06:06:44.434Z,16.35
2016-08-13T06:07:43.881Z,16.43
2016-08-13T06:08:44.170Z,16.42
2016-08-13T06:09:43.562Z,16.42
2016-08-13T06:10:43.809Z,16.46
2016-08-13T06:11:44.722Z,16.54
2016-08-13T06:12:44.360Z,16.66
2016-08-13T06:13:44.083Z,16.71
2016-08-13T06:14:44.993Z,16.86
2016-08-13T06:15:44.400Z,16.93
2016-08-13T06:16:43.768Z,16.97
2016-08-13T06:17:44.212Z,17.14
2016-08-13T06:18:44.720Z,17.05
2016-08-13T06:19:45.628Z,17.23
2016-08-13T06:20:43.756Z,17.23
2016-08-13T06:21:45.352Z,17.34
2016-08-13T06:22:46.020Z,17.52
2016-08-13T06:23:46.316Z,17.48
2016-08-13T06:24:45.668Z,17.51
2016-08-13T06:25:45.046Z,17.56
2016-08-13T06:26:45.073Z,17.57
2016-08-13T06:27:44.196Z,17.74
2016-08-13T06:28:44.477Z,17.65
2016-08-13T06:29:44.575Z,17.71
2016-08-13T06:30:45.204Z,17.64
2016-08-13T06:31:45.436Z,17.68
2016-08-13T06:32:44.789Z,17.72
2016-08-13T06:33:44.643Z,17.85
2016-08-13T06:34:44.767Z,17.8
2016-08-13T06:35:46.148Z,17.92
2016-08-13T06:36:44.731Z,17.86
2016-08-13T06:37:46.175Z,17.95
2016-08-13T06:38:44.318Z,18.07
2016-08-13T06:39:44.372Z,18.13
2016-08-13T06:40:45.445Z,18.13
2016-08-13T06:41:43.962Z,18.22
2016-08-13T06:42:44.835Z,18.13
2016-08-13T06:43:45.290Z,18.15
2016-08-13T06:44:45.175Z,18.23
2016-08-13T06:45:46.442Z,18.18
2016-08-13T06:46:45.210Z,18.25
2016-08-13T06:47:45.263Z,18.4
2016-08-13T06:48:44.790Z,18.4
2016-08-13T06:49:46.264Z,18.52
2016-08-13T06:50:45.577Z,18.65
2016-08-13T06:51:46.125Z,18.56
2016-08-13T06:52:44.379Z,18.55
2016-08-13T06:53:45.172Z,18.7
2016-08-13T06:54:45.209Z,18.68
2016-08-13T06:55:46.164Z,18.8
2016-08-13T06:56:45.984Z,18.9
2016-08-13T06:57:44.927Z,19.15
2016-08-13T06:58:46.299Z,19.27
2016-08-13T06:59:44.867Z,19.36
2016-08-13T07:00:46.016Z,19.24
2016-08-13T07:01:47.873Z,19.39
2016-08-13T07:02:46.070Z,19.49
2016-08-13T07:03:46.200Z,19.66
2016-08-13T07:04:47.002Z,19.48
2016-08-13T07:05:46.906Z,19.88
2016-08-13T07:06:46.874Z,19.76
2016-08-13T07:07:46.027Z,19.84
2016-08-13T07:08:45.483Z,19.76
2016-08-13T07:09:45.066Z,19.86
2016-08-13T07:10:47.861Z,20.03
2016-08-13T07:11:46.059Z,19.71
2016-08-13T07:12:45.812Z,19.88
2016-08-13T07:13:45.434Z,20.24
2016-08-13T07:14:45.922Z,20.32
2016-08-13T07:15:44.911Z,20.32
2016-08-13T07:16:45.450Z,20.43
2016-08-13T07:17:46.228Z,20.75
2016-08-13T07:18:45.256Z,20.72
2016-08-13T07:19:46.755Z,20.7
2016-08-13T07:20:45.100Z,20.55
2016-08-13T07:21:45.229Z,20.85
2016-08-13T07:22:46.806Z,20.66
2016-08-13T07:23:45.366Z,20.63
2016-08-13T07:24:45.521Z,20.74
2016-08-13T07:25:45.856Z,20.75
2016-08-13T07:26:47.810Z,20.99
2016-08-13T07:27:46.331Z,21.39
2016-08-13T07:28:47.598Z,21.18
2016-08-13T07:29:45.747Z,21.18
2016-08-13T07:30:47.599Z,21.33
2016-08-13T07:31:47.664Z,21.15
2016-08-13T07:32:47.158Z,21.35
2016-08-13T07:33:45.911Z,21.36
2016-08-13T07:34:46.460Z,21.4
2016-08-13T07:35:45.805Z,21.69
2016-08-13T07:36:46.696Z,21.54
2016-08-13T07:37:46.700Z,21.51
2016-08-13T07:38:45.445Z,21.89
2016-08-13T07:39:45.780Z,22.25
2016-08-13T07:40:46.720Z,22.5
2016-08-13T07:41:47.638Z,22.02
2016-08-13T07:42:45.936Z,21.96
2016-08-13T07:43:46.479Z,21.58
2016-08-13T07:44:46.096Z,22.39
2016-08-13T07:45:47.533Z,22.48
2016-08-13T07:46:47.264Z,22.59
2016-08-13T07:47:47.588Z,22.73
2016-08-13T07:48:47.594Z,22.29
2016-08-13T07:49:46.184Z,22.63
2016-08-13T07:50:47.464Z,22.68
2016-08-13T07:51:46.795Z,22.44
2016-08-13T07:52:46.361Z,22.18
2016-08-13T07:53:47.639Z,22.43
2016-08-13T07:54:46.511Z,22.76
2016-08-13T07:55:46.664Z,22.62
2016-08-13T07:56:46.176Z,23.36
2016-08-13T07:57:47.711Z,22.99
2016-08-13T07:58:47.495Z,23.05
2016-08-13T07:59:46.562Z,22.81
2016-08-13T08:00:47.285Z,22.76
2016-08-13T08:01:47.433Z,22.88
2016-08-13T08:02:47.193Z,22.5
2016-08-13T08:03:47.704Z,22.7
2016-08-13T08:04:48.480Z,22.45
2016-08-13T08:05:46.511Z,22.66
2016-08-13T08:06:47.448Z,23.03
2016-08-13T08:07:47.466Z,22.85
2016-08-13T08:08:47.270Z,23.02
2016-08-13T08:09:46.624Z,22.84
2016-08-13T08:10:47.498Z,22
2016-08-13T08:11:47.384Z,22.02
2016-08-13T08:12:46.657Z,22.3
2016-08-13T08:13:47.658Z,23.51
2016-08-13T08:14:46.844Z,23.69
2016-08-13T08:15:48.386Z,23.48
2016-08-13T08:16:48.061Z,23.83
2016-08-13T08:17:48.276Z,24.32
2016-08-13T08:18:47.945Z,23.81
2016-08-13T08:19:48.142Z,24.01
2016-08-13T08:20:48.267Z,24.03
2016-08-13T08:21:47.314Z,23.84
2016-08-13T08:22:47.361Z,24.63
2016-08-13T08:23:48.253Z,24.58
2016-08-13T08:24:49.669Z,24.26
2016-08-13T08:25:48.492Z,24.81
2016-08-13T08:26:47.616Z,24.02
2016-08-13T08:27:47.840Z,24.03
2016-08-13T08:28:48.162Z,23.95
2016-08-13T08:29:47.218Z,23.96
2016-08-13T08:30:50.094Z,23.27
2016-08-13T08:31:48.106Z,23.03
2016-08-13T08:32:48.480Z,22.81
2016-08-13T08:33:49.199Z,23.21
2016-08-13T08:34:47.620Z,24.24
2016-08-13T08:35:49.647Z,24.69
2016-08-13T08:36:47.922Z,24.89
2016-08-13T08:37:47.800Z,24.4
2016-08-13T08:38:47.717Z,24.48
2016-08-13T08:39:47.641Z,23.73
2016-08-13T08:40:48.084Z,24.08
2016-08-13T08:41:48.496Z,24.38
2016-08-13T08:42:48.234Z,24.43
2016-08-13T08:43:48.914Z,24.35
2016-08-13T08:44:48.935Z,24.32
2016-08-13T08:45:47.921Z,23.92
2016-08-13T08:46:48.824Z,23.83
2016-08-13T08:47:47.900Z,23.88
2016-08-13T08:48:48.260Z,24.1
2016-08-13T08:49:48.441Z,24.68
2016-08-13T08:50:48.052Z,24.73
2016-08-13T08:51:48.540Z,24.33
2016-08-13T08:52:50.247Z,24.54
2016-08-13T08:53:48.770Z,23.81
2016-08-13T08:54:49.545Z,23.65
2016-08-13T08:55:48.777Z,23.86
2016-08-13T08:56:48.641Z,24.48
2016-08-13T08:57:49.487Z,24.6
2016-08-13T08:58:48.091Z,24.57
2016-08-13T08:59:48.347Z,24.63
2016-08-13T09:00:50.189Z,24.7
2016-08-13T09:01:50.051Z,24.32
2016-08-13T09:02:49.061Z,24.2
2016-08-13T09:03:48.176Z,23.88
2016-08-13T09:04:48.575Z,24.43
2016-08-13T09:05:48.276Z,24.23
2016-08-13T09:06:49.863Z,23.96
2016-08-13T09:07:48.607Z,24.05
2016-08-13T09:08:49.921Z,24.39
2016-08-13T09:09:49.836Z,24.77
2016-08-13T09:10:50.575Z,24.68
2016-08-13T09:11:48.991Z,24.78
2016-08-13T09:12:48.310Z,24.1
2016-08-13T09:13:49.840Z,24.06
2016-08-13T09:14:48.535Z,24.54
2016-08-13T09:15:49.892Z,24.42
2016-08-13T09:16:50.257Z,24.47
2016-08-13T09:17:49.700Z,24.57
2016-08-13T09:18:50.564Z,24.26
2016-08-13T09:19:48.726Z,24.7
2016-08-13T09:20:50.321Z,25.03
2016-08-13T09:21:49.719Z,25.21
2016-08-13T09:22:50.244Z,25.69
2016-08-13T09:23:50.788Z,25.01
2016-08-13T09:24:49.116Z,24.99
2016-08-13T09:25:49.913Z,25.33
2016-08-13T09:26:50.466Z,26.19
2016-08-13T09:27:49.652Z,24.89
2016-08-13T09:28:50.027Z,25.69
2016-08-13T09:29:50.248Z,25.72
2016-08-13T09:30:50.409Z,25.25
2016-08-13T09:31:51.518Z,26.36
2016-08-13T09:32:50.034Z,26.21
2016-08-13T09:33:49.440Z,26.23
2016-08-13T09:34:50.197Z,26.84
2016-08-13T09:35:50.252Z,27.27
2016-08-13T09:36:50.602Z,25.53
2016-08-13T09:37:50.021Z,24.78
2016-08-13T09:38:49.536Z,24.91
2016-08-13T09:39:51.058Z,25.81
2016-08-13T09:40:50.332Z,25.46
2016-08-13T09:41:49.709Z,26.4
2016-08-13T09:42:50.989Z,25.4
2016-08-13T09:43:50.442Z,26.33
2016-08-13T09:44:50.651Z,27.22
2016-08-13T09:45:50.899Z,26.51
2016-08-13T09:46:50.961Z,26.96
2016-08-13T09:47:50.076Z,26.19
2016-08-13T09:48:52.474Z,25.17
2016-08-13T09:49:50.186Z,25.48
2016-08-13T09:50:49.845Z,26.07
2016-08-13T09:51:49.824Z,27.52
2016-08-13T09:52:50.724Z,27.25
2016-08-13T09:53:51.345Z,28.35
2016-08-13T09:54:51.518Z,27.48
2016-08-13T09:55:50.543Z,26.53
2016-08-13T09:56:51.192Z,26.13
2016-08-13T09:57:50.927Z,25.96
2016-08-13T09:58:52.550Z,26.44
2016-08-13T09:59:51.878Z,27.12
2016-08-13T10:00:51.155Z,26.47
2016-08-13T10:01:50.781Z,26.28
2016-08-13T10:02:50.421Z,27.45
2016-08-13T10:03:52.411Z,26.56
2016-08-13T10:04:52.304Z,26.19
2016-08-13T10:05:52.637Z,26.52
2016-08-13T10:06:51.698Z,26.81
2016-08-13T10:07:50.875Z,28.01
2016-08-13T10:08:51.893Z,27.95
2016-08-13T10:09:51.342Z,27.22
2016-08-13T10:10:52.479Z,27.96
2016-08-13T10:11:51.921Z,26.95
2016-08-13T10:12:51.352Z,26.07
2016-08-13T10:13:51.693Z,26.88
2016-08-13T10:14:51.857Z,26.62
2016-08-13T10:15:51.562Z,26.92
2016-08-13T10:16:51.609Z,26.44
2016-08-13T10:17:50.844Z,27.36
2016-08-13T10:18:51.104Z,27.42
2016-08-13T10:19:51.826Z,27.85
2016-08-13T10:20:52.641Z,28.01
2016-08-13T10:21:51.088Z,28.25
2016-08-13T10:22:53.740Z,29.34
2016-08-13T10:23:51.468Z,28.97
2016-08-13T10:24:52.299Z,28.14
2016-08-13T10:25:51.773Z,27.12
2016-08-13T10:26:51.541Z,25.85
2016-08-13T10:27:51.435Z,26.85
2016-08-13T10:28:51.759Z,26.29
2016-08-13T10:29:52.678Z,27.25
2016-08-13T10:30:51.948Z,27.15
2016-08-13T10:31:51.629Z,27.14
2016-08-13T10:32:51.758Z,26.78
2016-08-13T10:33:52.111Z,26.02
2016-08-13T10:34:53.137Z,26.65
2016-08-13T10:35:51.696Z,26.55
2016-08-13T10:36:52.674Z,25.77
2016-08-13T10:37:51.679Z,26.41
2016-08-13T10:38:52.692Z,27.33
2016-08-13T10:39:54.484Z,27.68
2016-08-13T10:40:52.795Z,26.59
2016-08-13T10:41:53.195Z,26.75
2016-08-13T10:42:53.084Z,26.07
2016-08-13T10:43:52.318Z,26.31
2016-08-13T10:44:53.820Z,25.96
2016-08-13T10:45:52.718Z,25.65
2016-08-13T10:46:52.645Z,26.07
2016-08-13T10:47:53.424Z,25.7
2016-08-13T10:48:52.399Z,25.87
2016-08-13T10:49:52.466Z,25.66
2016-08-13T10:50:53.839Z,25.53
2016-08-13T10:51:54.065Z,25.62
2016-08-13T10:52:53.360Z,25.98
2016-08-13T10:53:54.210Z,25.6
2016-08-13T10:54:53.188Z,25.16
2016-08-13T10:55:52.517Z,25.46
2016-08-13T10:56:52.408Z,25.91
2016-08-13T10:57:54.429Z,25.83
2016-08-13T10:58:52.601Z,26.22
2016-08-13T10:59:54.992Z,26.34
2016-08-13T11:00:52.794Z,26.81
2016-08-13T11:01:53.649Z,25.83
2016-08-13T11:02:53.857Z,26.02
2016-08-13T11:03:54.327Z,25.65
2016-08-13T11:04:53.003Z,25.69
2016-08-13T11:05:52.655Z,25.96
2016-08-13T11:06:54.831Z,26.23
2016-08-13T11:07:52.920Z,26.45
2016-08-13T11:08:53.224Z,26.85
2016-08-13T11:09:53.816Z,26.31
2016-08-13T11:10:54.025Z,26.75
2016-08-13T11:11:53.543Z,27.67
2016-08-13T11:12:53.186Z,27.08
2016-08-13T11:13:53.298Z,27
2016-08-13T11:14:53.876Z,27.32
2016-08-13T11:15:54.820Z,27.22
2016-08-13T11:16:54.645Z,26.8
2016-08-13T11:17:53.320Z,27.65
2016-08-13T11:18:54.720Z,28.15
2016-08-13T11:19:54.162Z,27.45
2016-08-13T11:20:54.072Z,28.39
2016-08-13T11:21:53.250Z,27.85
2016-08-13T11:22:53.507Z,26.95
2016-08-13T11:23:54.815Z,27.07
2016-08-13T11:24:54.471Z,27.37
2016-08-13T11:25:55.219Z,28.04
2016-08-13T11:26:53.559Z,28.69
2016-08-13T11:27:55.453Z,27.22
2016-08-13T11:28:54.638Z,26.28
2016-08-13T11:29:53.769Z,27.73
2016-08-13T11:30:54.205Z,26.9
2016-08-13T11:31:53.413Z,26.38
2016-08-13T11:32:53.371Z,26.18
2016-08-13T11:33:55.300Z,26.85
2016-08-13T11:34:53.535Z,27.73
2016-08-13T11:35:54.473Z,27.25
2016-08-13T11:36:54.228Z,28.19
2016-08-13T11:37:53.947Z,28.63
2016-08-13T11:38:54.512Z,28.23
2016-08-13T11:39:54.419Z,28.07
2016-08-13T11:40:54.928Z,27.7
2016-08-13T11:41:54.481Z,27.4
2016-08-13T11:42:53.913Z,27.35
2016-08-13T11:43:56.071Z,27.25
2016-08-13T11:44:54.467Z,28.85
2016-08-13T11:45:54.238Z,28.72
2016-08-13T11:46:55.677Z,28.69
2016-08-13T11:47:55.236Z,27.75
2016-08-13T11:48:55.690Z,26.88
2016-08-13T11:49:55.781Z,26.71
2016-08-13T11:50:55.690Z,26.55
2016-08-13T11:51:55.024Z,26.58
2016-08-13T11:52:54.414Z,27.93
2016-08-13T11:53:54.644Z,27.89
2016-08-13T11:54:55.280Z,27.22
2016-08-13T11:55:56.282Z,27.37
2016-08-13T11:56:55.232Z,27.29
2016-08-13T11:57:54.872Z,27.42
2016-08-13T11:58:54.929Z,27.07
2016-08-13T11:59:55.231Z,27.85
2016-08-13T12:00:56.187Z,26.84
2016-08-13T12:01:54.778Z,26.9
2016-08-13T12:02:55.777Z,27.35
2016-08-13T12:03:54.862Z,26.89
2016-08-13T12:04:55.780Z,26.85
2016-08-13T12:05:55.293Z,26.7
2016-08-13T12:06:55.880Z,27.55
2016-08-13T12:07:57.359Z,26.95
2016-08-13T12:08:57.115Z,28.05
2016-08-13T12:09:55.223Z,28.48
2016-08-13T12:10:56.977Z,28.37
2016-08-13T12:11:55.400Z,28.08
2016-08-13T12:12:55.519Z,27.37
2016-08-13T12:13:56.231Z,27.48
2016-08-13T12:14:55.650Z,27.27
2016-08-13T12:15:55.568Z,27.47
2016-08-13T12:16:55.663Z,28.08
2016-08-13T12:17:56.542Z,28.85
2016-08-13T12:18:56.478Z,27.75
2016-08-13T12:19:56.572Z,27.37
2016-08-13T12:20:57.087Z,27.4
2016-08-13T12:21:56.211Z,27.82
2016-08-13T12:22:57.282Z,28.72
2016-08-13T12:23:56.001Z,27.82
2016-08-13T12:24:55.474Z,27.96
2016-08-13T12:25:57.621Z,28.08
2016-08-13T12:27:55.943Z,27.83
2016-08-13T12:28:57.289Z,27.89
2016-08-13T12:29:57.887Z,27.15
2016-08-13T12:30:55.922Z,28.27
2016-08-13T12:31:57.172Z,30.57
2016-08-13T12:32:56.638Z,30.39
2016-08-13T12:33:57.377Z,30.77
2016-08-13T12:34:56.925Z,29.79
2016-08-13T12:35:57.126Z,30.43
2016-08-13T12:36:56.975Z,29.17
2016-08-13T12:37:56.746Z,28.66
2016-08-13T12:38:58.383Z,29.42
2016-08-13T12:39:55.942Z,28.64
2016-08-13T12:40:57.447Z,30.28
2016-08-13T12:41:57.548Z,30.21
2016-08-13T12:42:57.048Z,29.31
2016-08-13T12:43:56.501Z,28.12
2016-08-13T12:44:58.122Z,29.2
2016-08-13T12:45:56.510Z,28.88
2016-08-13T12:46:56.842Z,27.96
2016-08-13T12:47:56.365Z,28.63
2016-08-13T12:48:56.443Z,27.2
2016-08-13T12:49:56.561Z,27.65
2016-08-13T12:50:59.246Z,27.92
2016-08-13T12:51:57.817Z,28.29
2016-08-13T12:52:56.957Z,29.01
2016-08-13T12:53:58.179Z,29.31
2016-08-13T12:54:57.624Z,28.75
2016-08-13T12:55:56.601Z,28.1
2016-08-13T12:56:57.398Z,29.04